createdAt,value
2017-05-27T00:00:20.011Z,18.80
2017-05-27T00:02:48.829Z,18.80
2017-05-27T00:05:17.707Z,18.70
2017-05-27T00:07:46.529Z,18.70
2017-05-27T00:10:15.432Z,18.70
2017-05-27T00:12:44.272Z,18.60
2017-05-27T00:15:13.089Z,18.70
2017-05-27T00:17:42.134Z,18.60
2017-05-27T00:20:11.000Z,18.60
2017-05-27T00:22:39.802Z,18.60
2017-05-27T00:25:08.636Z,18.50
2017-05-27T00:27:37.487Z,18.50
2017-05-27T00:30:06.393Z,18.50
2017-05-27T00:32:35.243Z,18.50
2017-05-27T00:35:04.046Z,18.50
2017-05-27T00:37:33.023Z,18.40
2017-05-27T00:40:01.991Z,18.30
2017-05-27T00:42:30.128Z,18.30
2017-05-27T00:44:58.931Z,18.40
2017-05-27T00:47:27.778Z,18.30
2017-05-27T00:49:56.695Z,18.40
2017-05-27T00:52:25.585Z,18.40
2017-05-27T00:54:54.509Z,18.30
2017-05-27T00:57:23.346Z,18.40
2017-05-27T00:59:52.147Z,18.30
2017-05-27T01:02:20.991Z,18.30
2017-05-27T01:04:49.855Z,18.20
2017-05-27T01:07:18.669Z,18.20
2017-05-27T01:09:47.509Z,18.20
2017-05-27T01:12:16.330Z,18.30
2017-05-27T01:14:45.155Z,18.20
2017-05-27T01:17:14.080Z,18.20
2017-05-27T01:19:43.039Z,18.20
2017-05-27T01:22:11.885Z,18.10
2017-05-27T01:24:40.834Z,18.10
2017-05-27T01:27:09.719Z,18.10
2017-05-27T01:29:38.837Z,18.10
2017-05-27T01:32:07.869Z,18.10
2017-05-27T01:34:36.882Z,18.00
2017-05-27T01:37:05.731Z,18.00
2017-05-27T01:39:34.640Z,17.90
2017-05-27T01:42:03.454Z,17.90
2017-05-27T01:44:32.262Z,17.90
2017-05-27T01:47:01.112Z,17.90
2017-05-27T01:49:29.952Z,17.90
2017-05-27T01:51:58.776Z,17.90
2017-05-27T01:54:27.627Z,17.80
2017-05-27T01:56:56.494Z,17.80
2017-05-27T01:59:25.432Z,17.80
2017-05-27T02:01:54.243Z,17.70
2017-05-27T02:04:23.078Z,17.70
2017-05-27T02:06:51.899Z,17.80
2017-05-27T02:09:20.748Z,17.80
2017-05-27T02:11:49.560Z,17.70
2017-05-27T02:14:18.396Z,17.80
2017-05-27T02:16:47.258Z,17.70
2017-05-27T02:19:16.070Z,17.70
2017-05-27T02:21:44.908Z,17.60
2017-05-27T02:24:12.969Z,17.60
2017-05-27T02:26:41.919Z,17.60
2017-05-27T02:29:10.748Z,17.50
2017-05-27T02:31:39.580Z,17.40
2017-05-27T02:34:08.485Z,17.40
2017-05-27T02:36:37.357Z,17.40
2017-05-27T02:39:06.184Z,17.50
2017-05-27T02:41:34.995Z,17.50
2017-05-27T02:44:03.839Z,17.50
2017-05-27T02:46:32.717Z,17.50
2017-05-27T02:49:01.627Z,17.40
2017-05-27T02:51:30.460Z,17.50
2017-05-27T02:53:59.331Z,17.50
2017-05-27T02:56:28.144Z,17.40
2017-05-27T02:58:56.978Z,17.40
2017-05-27T03:01:25.838Z,17.40
2017-05-27T03:03:54.646Z,17.40
2017-05-27T03:06:23.508Z,17.40
2017-05-27T03:08:52.320Z,17.40
2017-05-27T03:11:21.140Z,17.30
2017-05-27T03:13:49.967Z,17.20
2017-05-27T03:16:18.847Z,17.20
2017-05-27T03:18:47.685Z,17.20
2017-05-27T03:21:16.552Z,17.20
2017-05-27T03:23:45.377Z,17.20
2017-05-27T03:26:14.322Z,17.30
2017-05-27T03:28:43.131Z,17.30
2017-05-27T03:31:12.030Z,17.30
2017-05-27T03:33:41.201Z,17.30
2017-05-27T03:36:09.975Z,17.30
2017-05-27T03:38:38.806Z,17.30
2017-05-27T03:41:07.640Z,17.30
2017-05-27T03:43:36.459Z,17.30
2017-05-27T03:46:04.544Z,17.30
2017-05-27T03:48:33.345Z,17.30
2017-05-27T03:51:02.171Z,17.30
2017-05-27T03:53:31.007Z,17.30
2017-05-27T03:55:59.831Z,17.20
2017-05-27T03:58:28.684Z,17.30
2017-05-27T04:00:57.507Z,17.30
2017-05-27T04:03:26.397Z,17.30
2017-05-27T04:05:55.443Z,17.20
2017-05-27T04:08:23.519Z,17.20
2017-05-27T04:10:52.428Z,17.30
2017-05-27T04:13:21.398Z,17.40
2017-05-27T04:15:51.537Z,17.50
2017-05-27T04:18:20.569Z,17.50
2017-05-27T04:20:49.429Z,17.50
2017-05-27T04:23:18.460Z,17.60
2017-05-27T04:25:47.424Z,18.20
2017-05-27T04:28:16.341Z,17.60
2017-05-27T04:30:45.225Z,17.60
2017-05-27T04:33:14.071Z,17.70
2017-05-27T04:35:42.924Z,17.70
2017-05-27T04:38:11.777Z,17.80
2017-05-27T04:40:40.646Z,17.70
2017-05-27T04:43:09.511Z,17.80
2017-05-27T04:45:38.356Z,17.90
2017-05-27T04:48:07.298Z,17.90
2017-05-27T04:50:36.245Z,17.90
2017-05-27T04:53:05.116Z,18.00
2017-05-27T04:55:34.220Z,18.10
2017-05-27T04:58:03.149Z,18.20
2017-05-27T05:00:31.983Z,18.20
2017-05-27T05:03:00.126Z,18.10
2017-05-27T05:05:29.143Z,18.30
2017-05-27T05:07:58.239Z,18.40
2017-05-27T05:10:27.180Z,18.50
2017-05-27T05:12:56.003Z,18.60
2017-05-27T05:15:24.222Z,18.50
2017-05-27T05:17:53.951Z,18.80
2017-05-27T05:20:22.857Z,18.90
2017-05-27T05:22:51.700Z,19.00
2017-05-27T05:25:19.747Z,19.00
2017-05-27T05:27:48.738Z,19.00
2017-05-27T05:30:17.544Z,19.10
2017-05-27T05:32:46.376Z,19.20
2017-05-27T05:35:15.205Z,19.30
2017-05-27T05:37:44.055Z,19.30
2017-05-27T05:40:12.915Z,19.40
2017-05-27T05:42:41.730Z,19.50
2017-05-27T05:45:10.574Z,19.70
2017-05-27T05:47:39.402Z,19.80
2017-05-27T05:50:08.212Z,19.80
2017-05-27T05:52:37.044Z,19.90
2017-05-27T05:55:05.859Z,20.00
2017-05-27T05:57:34.705Z,20.10
2017-05-27T06:00:03.515Z,20.10
2017-05-27T06:02:32.346Z,20.30
2017-05-27T06:05:01.181Z,20.40
2017-05-27T06:07:30.010Z,20.40
2017-05-27T06:09:59.388Z,20.50
2017-05-27T06:12:28.207Z,20.70
2017-05-27T06:14:57.020Z,20.80
2017-05-27T06:17:27.026Z,20.80
2017-05-27T06:19:55.928Z,20.80
2017-05-27T06:22:24.757Z,21.00
2017-05-27T06:24:53.563Z,21.10
2017-05-27T06:27:22.411Z,21.10
2017-05-27T06:29:51.227Z,21.30
2017-05-27T06:32:20.039Z,21.40
2017-05-27T06:34:48.890Z,21.30
2017-05-27T06:37:17.710Z,21.30
2017-05-27T06:39:46.535Z,21.50
2017-05-27T06:42:15.416Z,21.60
2017-05-27T06:44:44.254Z,21.60
2017-05-27T06:47:13.075Z,21.70
2017-05-27T06:49:41.907Z,21.70
2017-05-27T06:52:10.718Z,21.90
2017-05-27T06:54:39.580Z,21.90
2017-05-27T06:57:08.446Z,22.10
2017-05-27T06:59:37.238Z,22.00
2017-05-27T07:02:06.076Z,21.90
2017-05-27T07:04:34.890Z,22.00
2017-05-27T07:07:03.709Z,22.10
2017-05-27T07:09:32.586Z,22.20
2017-05-27T07:12:01.398Z,22.50
2017-05-27T07:14:30.257Z,22.70
2017-05-27T07:16:59.098Z,22.70
2017-05-27T07:19:27.944Z,22.80
2017-05-27T07:21:56.786Z,22.90
2017-05-27T07:24:25.610Z,23.00
2017-05-27T07:26:54.464Z,23.10
2017-05-27T07:29:23.676Z,23.20
2017-05-27T07:31:52.479Z,23.20
2017-05-27T07:34:21.291Z,23.00
2017-05-27T07:36:50.250Z,23.20
2017-05-27T07:39:19.083Z,23.40
2017-05-27T07:41:48.831Z,23.50
2017-05-27T07:44:17.638Z,23.80
2017-05-27T07:46:46.463Z,23.90
2017-05-27T07:49:15.275Z,23.60
2017-05-27T07:51:44.086Z,23.90
2017-05-27T07:54:12.946Z,24.20
2017-05-27T07:56:41.758Z,24.30
2017-05-27T07:59:10.564Z,24.30
2017-05-27T08:01:39.438Z,24.50
2017-05-27T08:04:08.306Z,24.70
2017-05-27T08:06:37.156Z,24.80
2017-05-27T08:09:06.022Z,24.90
2017-05-27T08:11:34.833Z,25.00
2017-05-27T08:14:03.691Z,25.10
2017-05-27T08:16:32.510Z,25.10
2017-05-27T08:19:03.793Z,25.20
2017-05-27T08:21:33.370Z,25.30
2017-05-27T08:24:02.182Z,25.50
2017-05-27T08:26:30.994Z,25.60
2017-05-27T08:28:59.830Z,25.90
2017-05-27T08:31:28.658Z,25.80
2017-05-27T08:34:03.195Z,25.90
2017-05-27T08:36:32.041Z,26.10
2017-05-27T08:39:00.846Z,26.20
2017-05-27T08:41:29.686Z,26.30
2017-05-27T08:43:58.578Z,26.30
2017-05-27T08:46:27.420Z,26.60
2017-05-27T08:48:56.220Z,26.60
2017-05-27T08:51:25.141Z,26.70
2017-05-27T08:53:54.002Z,27.00
2017-05-27T08:56:22.988Z,27.10
2017-05-27T08:58:51.848Z,27.10
2017-05-27T09:01:20.742Z,27.00
2017-05-27T09:03:49.508Z,27.00
2017-05-27T09:06:18.335Z,27.30
2017-05-27T09:08:47.273Z,27.50
2017-05-27T09:11:16.133Z,27.60
2017-05-27T09:13:44.944Z,27.70
2017-05-27T09:16:13.776Z,27.70
2017-05-27T09:18:42.627Z,27.80
2017-05-27T09:21:11.464Z,27.90
2017-05-27T09:23:40.299Z,27.90
2017-05-27T09:26:09.187Z,28.20
2017-05-27T09:28:38.018Z,28.50
2017-05-27T09:31:06.890Z,28.80
2017-05-27T09:33:35.824Z,28.60
2017-05-27T09:36:04.746Z,28.80
2017-05-27T09:38:33.535Z,28.90
2017-05-27T09:41:02.459Z,29.10
2017-05-27T09:43:31.283Z,29.00
2017-05-27T09:46:00.107Z,29.20
2017-05-27T09:48:28.954Z,29.30
2017-05-27T09:50:57.790Z,29.40
2017-05-27T09:53:26.603Z,29.50
2017-05-27T09:55:55.076Z,29.90
2017-05-27T09:58:23.884Z,30.20
2017-05-27T10:00:52.751Z,30.50
2017-05-27T10:03:21.606Z,30.70
2017-05-27T10:05:50.083Z,30.60
2017-05-27T10:08:18.996Z,30.50
2017-05-27T10:10:47.875Z,30.60
2017-05-27T10:13:16.798Z,30.40
2017-05-27T10:15:45.630Z,30.90
2017-05-27T10:18:14.476Z,31.50
2017-05-27T10:20:43.284Z,31.50
2017-05-27T10:23:12.141Z,31.40
2017-05-27T10:25:40.951Z,31.50
2017-05-27T10:28:09.905Z,31.60
2017-05-27T10:30:38.847Z,31.60
2017-05-27T10:33:07.744Z,31.60
2017-05-27T10:35:36.553Z,31.50
2017-05-27T10:38:05.366Z,31.50
2017-05-27T10:40:34.291Z,31.90
2017-05-27T10:43:03.166Z,32.30
2017-05-27T10:45:32.019Z,32.70
2017-05-27T10:48:01.201Z,32.60
2017-05-27T10:50:30.038Z,32.60
2017-05-27T10:52:58.851Z,32.70
2017-05-27T10:55:28.399Z,32.50
2017-05-27T10:57:57.228Z,32.40
2017-05-27T11:00:26.092Z,32.40
2017-05-27T11:02:54.951Z,32.60
2017-05-27T11:05:23.766Z,32.70
2017-05-27T11:07:51.847Z,32.60
2017-05-27T11:10:20.746Z,32.90
2017-05-27T11:12:49.555Z,33.40
2017-05-27T11:15:18.425Z,33.60
2017-05-27T11:17:47.274Z,33.60
2017-05-27T11:20:16.095Z,33.60
2017-05-27T11:22:44.911Z,33.60
2017-05-27T11:25:13.762Z,33.40
2017-05-27T11:27:42.575Z,33.40
2017-05-27T11:30:11.443Z,33.60
2017-05-27T11:32:40.275Z,33.60
2017-05-27T11:35:09.080Z,33.60
2017-05-27T11:37:37.962Z,33.70
2017-05-27T11:40:06.838Z,33.70
2017-05-27T11:42:35.674Z,33.80
2017-05-27T11:45:04.522Z,33.90
2017-05-27T11:47:32.570Z,33.90
2017-05-27T11:50:01.410Z,34.20
2017-05-27T11:52:30.283Z,34.40
2017-05-27T11:54:59.098Z,34.00
2017-05-27T11:57:27.914Z,34.10
2017-05-27T11:59:56.811Z,34.10
2017-05-27T12:02:25.643Z,34.10
2017-05-27T12:04:54.451Z,33.90
2017-05-27T12:07:23.766Z,34.00
2017-05-27T12:09:52.613Z,34.10
2017-05-27T12:12:21.406Z,33.80
2017-05-27T12:14:50.218Z,33.70
2017-05-27T12:17:19.060Z,34.20
2017-05-27T12:19:48.014Z,34.40
2017-05-27T12:22:16.827Z,35.00
2017-05-27T12:24:45.671Z,35.20
2017-05-27T12:27:13.746Z,35.20
2017-05-27T12:29:42.544Z,35.00
2017-05-27T12:32:11.382Z,34.80
2017-05-27T12:34:40.425Z,34.70
2017-05-27T12:37:09.383Z,34.80
2017-05-27T12:39:38.162Z,34.80
2017-05-27T12:42:07.006Z,34.90
2017-05-27T12:44:35.837Z,34.80
2017-05-27T12:47:04.675Z,35.10
2017-05-27T12:49:38.095Z,34.90
2017-05-27T12:52:08.210Z,34.70
2017-05-27T12:54:37.065Z,34.80
2017-05-27T12:57:05.899Z,34.80
2017-05-27T12:59:34.717Z,35.20
2017-05-27T13:02:03.623Z,35.20
2017-05-27T13:04:32.454Z,35.30
2017-05-27T13:07:01.272Z,35.30
2017-05-27T13:09:30.125Z,35.20
2017-05-27T13:11:58.954Z,35.40
2017-05-27T13:14:27.782Z,35.30
2017-05-27T13:16:56.607Z,35.10
2017-05-27T13:19:25.453Z,35.70
2017-05-27T13:21:54.275Z,35.90
2017-05-27T13:24:23.082Z,35.80
2017-05-27T13:26:51.917Z,35.90
2017-05-27T13:29:20.758Z,35.80
2017-05-27T13:31:49.583Z,35.70
2017-05-27T13:34:18.395Z,35.70
2017-05-27T13:36:47.263Z,35.90
2017-05-27T13:39:16.068Z,35.30
2017-05-27T13:41:44.887Z,35.50
2017-05-27T13:44:13.755Z,35.50
2017-05-27T13:46:42.670Z,35.80
2017-05-27T13:49:11.511Z,35.60
2017-05-27T13:51:40.362Z,35.90
2017-05-27T13:54:09.185Z,36.10
2017-05-27T13:56:38.080Z,36.20
2017-05-27T13:59:06.925Z,36.20
2017-05-27T14:01:36.815Z,36.20
2017-05-27T14:04:05.678Z,35.80
2017-05-27T14:06:34.491Z,35.90
2017-05-27T14:09:03.307Z,35.70
2017-05-27T14:11:32.167Z,35.70
2017-05-27T14:14:00.991Z,35.80
2017-05-27T14:16:29.798Z,35.90
2017-05-27T14:18:58.711Z,35.90
2017-05-27T14:21:27.543Z,35.60
2017-05-27T14:23:56.352Z,35.50
2017-05-27T14:26:25.201Z,35.80
2017-05-27T14:28:54.029Z,36.20
2017-05-27T14:31:22.850Z,36.40
2017-05-27T14:33:51.714Z,36.10
2017-05-27T14:36:20.555Z,35.90
2017-05-27T14:38:49.387Z,36.00
2017-05-27T14:41:18.210Z,35.80
2017-05-27T14:43:47.041Z,35.80
2017-05-27T14:46:15.882Z,35.50
2017-05-27T14:48:44.724Z,35.50
2017-05-27T14:51:13.538Z,35.50
2017-05-27T14:53:42.386Z,35.70
2017-05-27T14:56:11.191Z,35.50
2017-05-27T14:58:40.032Z,35.30
2017-05-27T15:01:08.886Z,35.50
2017-05-27T15:03:37.689Z,35.40
2017-05-27T15:06:06.522Z,35.60
2017-05-27T15:08:35.354Z,35.90
2017-05-27T15:11:04.200Z,36.10
2017-05-27T15:13:33.084Z,35.90
2017-05-27T15:16:01.995Z,35.90
2017-05-27T15:18:30.812Z,35.70
2017-05-27T15:20:59.623Z,35.50
2017-05-27T15:23:28.097Z,35.30
2017-05-27T15:25:56.927Z,35.20
2017-05-27T15:28:25.751Z,35.00
2017-05-27T15:30:54.645Z,35.00
2017-05-27T15:33:23.519Z,34.90
2017-05-27T15:35:52.415Z,34.90
2017-05-27T15:38:21.293Z,34.60
2017-05-27T15:40:50.099Z,34.30
2017-05-27T15:43:18.974Z,34.40
2017-05-27T15:45:47.845Z,34.40
2017-05-27T15:48:16.663Z,34.00
2017-05-27T15:50:45.587Z,34.20
2017-05-27T15:53:14.430Z,34.20
2017-05-27T15:55:43.235Z,34.20
2017-05-27T15:58:11.595Z,33.80
2017-05-27T16:00:40.328Z,33.60
2017-05-27T16:03:08.690Z,33.50
2017-05-27T16:05:36.960Z,33.50
2017-05-27T16:08:05.590Z,33.50
2017-05-27T16:10:33.871Z,33.40
2017-05-27T16:13:02.623Z,33.10
2017-05-27T16:15:30.942Z,33.00
2017-05-27T16:17:59.214Z,32.80
2017-05-27T16:20:27.514Z,32.80
2017-05-27T16:22:55.411Z,32.90
2017-05-27T16:25:23.667Z,32.80
2017-05-27T16:27:51.928Z,32.60
2017-05-27T16:30:20.222Z,32.50
2017-05-27T16:32:48.515Z,32.50
2017-05-27T16:35:16.731Z,32.40
2017-05-27T16:37:45.003Z,32.40
2017-05-27T16:40:13.425Z,32.10
2017-05-27T16:42:42.026Z,31.80
2017-05-27T16:45:10.280Z,31.60
2017-05-27T16:47:39.027Z,31.40
2017-05-27T16:50:07.913Z,31.30
2017-05-27T16:52:36.754Z,31.20
2017-05-27T16:55:05.587Z,31.00
2017-05-27T16:57:34.423Z,30.90
2017-05-27T17:00:03.302Z,30.80
2017-05-27T17:02:32.119Z,30.80
2017-05-27T17:05:00.947Z,30.80
2017-05-27T17:07:29.790Z,30.70
2017-05-27T17:09:59.443Z,30.70
2017-05-27T17:12:28.308Z,30.50
2017-05-27T17:14:56.760Z,30.20
2017-05-27T17:17:25.568Z,30.00
2017-05-27T17:19:54.413Z,29.90
2017-05-27T17:22:23.254Z,29.80
2017-05-27T17:24:52.099Z,29.70
2017-05-27T17:27:20.936Z,29.60
2017-05-27T17:29:49.765Z,29.50
2017-05-27T17:32:18.602Z,29.40
2017-05-27T17:34:47.479Z,29.20
2017-05-27T17:37:16.294Z,29.20
2017-05-27T17:39:45.106Z,29.10
2017-05-27T17:42:14.001Z,29.00
2017-05-27T17:44:42.799Z,28.90
2017-05-27T17:47:11.658Z,28.80
2017-05-27T17:49:40.467Z,28.70
2017-05-27T17:52:09.377Z,28.60
2017-05-27T17:54:38.227Z,28.50
2017-05-27T17:57:07.067Z,28.40
2017-05-27T17:59:35.941Z,28.30
2017-05-27T18:02:04.783Z,28.20
2017-05-27T18:04:33.643Z,28.00
2017-05-27T18:07:02.463Z,27.90
2017-05-27T18:09:31.307Z,27.80
2017-05-27T18:12:00.179Z,27.70
2017-05-27T18:14:28.996Z,27.60
2017-05-27T18:16:58.231Z,27.50
2017-05-27T18:19:27.043Z,27.40
2017-05-27T18:21:55.852Z,27.40
2017-05-27T18:24:24.372Z,27.30
2017-05-27T18:26:53.187Z,27.20
2017-05-27T18:29:22.024Z,27.00
2017-05-27T18:31:50.886Z,27.00
2017-05-27T18:34:19.686Z,26.90
2017-05-27T18:36:48.159Z,26.90
2017-05-27T18:39:16.232Z,26.80
2017-05-27T18:41:45.089Z,26.70
2017-05-27T18:44:13.543Z,26.50
2017-05-27T18:46:42.513Z,26.40
2017-05-27T18:49:12.156Z,26.30
2017-05-27T18:51:41.156Z,26.30
2017-05-27T18:54:09.942Z,26.20
2017-05-27T18:56:38.459Z,26.20
2017-05-27T18:59:07.294Z,26.10
2017-05-27T19:01:36.140Z,26.00
2017-05-27T19:04:05.020Z,25.90
2017-05-27T19:06:33.826Z,25.80
2017-05-27T19:09:02.639Z,25.80
2017-05-27T19:11:31.569Z,25.70
2017-05-27T19:14:00.442Z,25.70
2017-05-27T19:16:29.276Z,25.80
2017-05-27T19:18:58.088Z,25.50
2017-05-27T19:21:27.005Z,25.50
2017-05-27T19:23:55.818Z,25.50
2017-05-27T19:26:24.707Z,25.30
2017-05-27T19:28:53.597Z,25.20
2017-05-27T19:31:22.498Z,25.00
2017-05-27T19:33:51.347Z,24.90
2017-05-27T19:36:20.198Z,24.80
2017-05-27T19:38:49.098Z,24.70
2017-05-27T19:41:17.980Z,24.60
2017-05-27T19:43:46.859Z,24.50
2017-05-27T19:46:15.291Z,24.50
2017-05-27T19:48:44.123Z,24.40
2017-05-27T19:51:13.019Z,24.40
2017-05-27T19:53:41.886Z,24.30
2017-05-27T19:56:10.693Z,24.20
2017-05-27T19:58:39.643Z,24.20
2017-05-27T20:01:08.464Z,24.20
2017-05-27T20:03:37.287Z,24.10
2017-05-27T20:06:06.144Z,24.10
2017-05-27T20:08:34.964Z,24.00
2017-05-27T20:11:03.788Z,23.90
2017-05-27T20:13:32.647Z,23.80
2017-05-27T20:16:01.117Z,23.80
2017-05-27T20:18:29.587Z,23.70
2017-05-27T20:20:58.470Z,23.60
2017-05-27T20:23:27.702Z,23.60
2017-05-27T20:25:56.534Z,23.60
2017-05-27T20:28:25.364Z,23.50
2017-05-27T20:30:54.240Z,23.40
2017-05-27T20:33:23.062Z,23.50
2017-05-27T20:35:51.894Z,23.40
2017-05-27T20:38:20.723Z,23.40
2017-05-27T20:40:49.543Z,23.30
2017-05-27T20:43:18.357Z,23.30
2017-05-27T20:45:47.194Z,23.30
2017-05-27T20:48:16.007Z,23.30
2017-05-27T20:50:44.818Z,23.20
2017-05-27T20:53:13.643Z,23.10
2017-05-27T20:55:42.492Z,23.10
2017-05-27T20:58:11.302Z,23.00
2017-05-27T21:00:40.123Z,23.10
2017-05-27T21:03:08.946Z,23.10
2017-05-27T21:05:37.871Z,23.10
2017-05-27T21:08:06.691Z,23.10
2017-05-27T21:10:35.575Z,23.00
2017-05-27T21:13:04.371Z,22.90
2017-05-27T21:15:33.175Z,23.00
2017-05-27T21:18:02.007Z,23.00
2017-05-27T21:20:30.822Z,22.90
2017-05-27T21:22:59.685Z,22.80
2017-05-27T21:25:28.491Z,22.70
2017-05-27T21:27:57.311Z,22.70
2017-05-27T21:30:26.138Z,22.70
2017-05-27T21:32:54.952Z,22.60
2017-05-27T21:35:23.827Z,22.60
2017-05-27T21:37:52.688Z,22.40
2017-05-27T21:40:21.509Z,22.30
2017-05-27T21:42:50.392Z,22.30
2017-05-27T21:45:19.199Z,22.20
2017-05-27T21:47:48.071Z,22.20
2017-05-27T21:50:16.893Z,22.20
2017-05-27T21:52:45.702Z,22.30
2017-05-27T21:55:14.547Z,22.30
2017-05-27T21:57:43.359Z,22.20
2017-05-27T22:00:12.179Z,22.20
2017-05-27T22:02:41.014Z,22.20
2017-05-27T22:05:09.827Z,22.20
2017-05-27T22:07:38.643Z,22.20
2017-05-27T22:10:07.487Z,22.20
2017-05-27T22:12:36.314Z,22.20
2017-05-27T22:15:05.123Z,22.20
2017-05-27T22:17:33.946Z,22.20
2017-05-27T22:20:02.759Z,22.20
2017-05-27T22:22:31.699Z,22.20
2017-05-27T22:25:00.504Z,22.20
2017-05-27T22:27:29.318Z,22.20
2017-05-27T22:29:58.704Z,22.10
2017-05-27T22:32:27.515Z,22.10
2017-05-27T22:34:55.963Z,22.10
2017-05-27T22:37:24.802Z,22.00
2017-05-27T22:39:53.638Z,22.00
2017-05-27T22:42:22.467Z,22.00
2017-05-27T22:44:51.288Z,21.90
2017-05-27T22:47:20.268Z,21.90
2017-05-27T22:49:49.055Z,21.90
2017-05-27T22:52:17.874Z,21.90
2017-05-27T22:54:46.708Z,21.90
2017-05-27T22:57:15.518Z,21.90
2017-05-27T22:59:44.375Z,21.90
2017-05-27T23:02:13.192Z,21.80
2017-05-27T23:04:42.038Z,21.70
2017-05-27T23:07:10.878Z,21.70
2017-05-27T23:09:39.689Z,21.70
2017-05-27T23:12:08.498Z,21.60
2017-05-27T23:14:37.342Z,21.70
2017-05-27T23:17:06.175Z,21.60
2017-05-27T23:19:34.990Z,21.60
2017-05-27T23:22:03.855Z,21.60
2017-05-27T23:24:32.646Z,21.60
2017-05-27T23:27:01.491Z,21.60
2017-05-27T23:29:30.303Z,21.60
2017-05-27T23:31:59.121Z,21.60
2017-05-27T23:34:27.593Z,21.50
2017-05-27T23:36:56.410Z,21.50
2017-05-27T23:39:24.860Z,21.50
2017-05-27T23:41:53.723Z,21.50
2017-05-27T23:44:22.537Z,21.50
2017-05-27T23:46:51.351Z,21.40
2017-05-27T23:49:20.199Z,21.40
2017-05-27T23:51:49.015Z,21.40
2017-05-27T23:54:17.852Z,21.30
2017-05-27T23:56:46.683Z,21.30
2017-05-27T23:59:15.530Z,21.20
